DLH3CK EDDM-LGAV
Flight info
| Callsign | DLH3CK |
|---|---|
| Flight time | N/A |
| Altitude | 33000 |
| Route | VAVOR4N VAVOR M867 RADIZ DCT REKTI DCT NEMEK DCT ELTIB DCT PINDO DCT PIKOS UL607 XORKI |
| Aircraft | A321/M-SDE3FGHIRWY/LB1 |
Departure
| Time | N/A |
|---|---|
| Airport | Munich Airport (EDDM) |
Arrival
| Time | 2026-05-05 14:55 |
|---|---|
| Airport | Athens Eleftherios Venizelos International Airport (LGAV) |
| Time | Latitude | Longitude | Altitude | Speed | Heading |
|---|---|---|---|---|---|
| 2026-05-05 14:26 | 39.17105 | 22.43110 | 33055 ft | 520 kts | 140° |
| 2026-05-05 14:26 | 39.14348 | 22.46126 | 33070 ft | 520 kts | 140° |
| 2026-05-05 14:26 | 39.08841 | 22.52156 | 33048 ft | 520 kts | 139° |
| 2026-05-05 14:27 | 39.03332 | 22.58180 | 33050 ft | 520 kts | 139° |
| 2026-05-05 14:27 | 38.97820 | 22.64187 | 33049 ft | 519 kts | 139° |
| 2026-05-05 14:28 | 38.92305 | 22.70187 | 33045 ft | 519 kts | 140° |
| 2026-05-05 14:28 | 38.86824 | 22.76135 | 33052 ft | 520 kts | 140° |
| 2026-05-05 14:29 | 38.81302 | 22.82122 | 33065 ft | 520 kts | 139° |
| 2026-05-05 14:29 | 38.75784 | 22.88100 | 33064 ft | 519 kts | 140° |
| 2026-05-05 14:30 | 38.70253 | 22.94067 | 33064 ft | 519 kts | 140° |
| 2026-05-05 14:30 | 38.64763 | 22.99976 | 33066 ft | 519 kts | 140° |
| 2026-05-05 14:31 | 38.59227 | 23.05911 | 33061 ft | 519 kts | 140° |
| 2026-05-05 14:31 | 38.53694 | 23.11837 | 33066 ft | 519 kts | 139° |
| 2026-05-05 14:32 | 38.48161 | 23.17775 | 33050 ft | 520 kts | 139° |
| 2026-05-05 14:32 | 38.42649 | 23.23662 | 33050 ft | 520 kts | 140° |
| 2026-05-05 14:33 | 38.37091 | 23.29579 | 33054 ft | 521 kts | 140° |
| 2026-05-05 14:33 | 38.31529 | 23.35492 | 33064 ft | 521 kts | 140° |
| 2026-05-05 14:34 | 38.25959 | 23.41401 | 33061 ft | 521 kts | 140° |
| 2026-05-05 14:34 | 38.20388 | 23.47294 | 33076 ft | 521 kts | 140° |
| 2026-05-05 14:35 | 38.15044 | 23.53400 | 33047 ft | 520 kts | 133° |
| 2026-05-05 14:35 | 38.10008 | 23.59986 | 32725 ft | 520 kts | 133° |
| 2026-05-05 14:36 | 38.07483 | 23.63285 | 31772 ft | 525 kts | 133° |
| 2026-05-05 14:36 | 38.04924 | 23.66617 | 30802 ft | 529 kts | 132° |
| 2026-05-05 14:36 | 38.02340 | 23.69972 | 29730 ft | 534 kts | 132° |
| 2026-05-05 14:36 | 37.99739 | 23.73345 | 28651 ft | 536 kts | 132° |
| 2026-05-05 14:37 | 37.97128 | 23.76725 | 27496 ft | 538 kts | 133° |
| 2026-05-05 14:37 | 37.94506 | 23.80118 | 26495 ft | 538 kts | 133° |
| 2026-05-05 14:37 | 37.91924 | 23.83447 | 25460 ft | 536 kts | 133° |
| 2026-05-05 14:37 | 37.89305 | 23.86820 | 24360 ft | 537 kts | 133° |
| 2026-05-05 14:38 | 37.86699 | 23.90176 | 23564 ft | 531 kts | 133° |
| 2026-05-05 14:38 | 37.84134 | 23.93479 | 22749 ft | 522 kts | 133° |
| 2026-05-05 14:38 | 37.81609 | 23.96726 | 21956 ft | 514 kts | 133° |
| 2026-05-05 14:38 | 37.79120 | 23.99925 | 21169 ft | 506 kts | 133° |
| 2026-05-05 14:39 | 37.76664 | 24.03078 | 20419 ft | 499 kts | 133° |
| 2026-05-05 14:39 | 37.74246 | 24.06185 | 19671 ft | 493 kts | 133° |
| 2026-05-05 14:39 | 37.71892 | 24.09207 | 18987 ft | 486 kts | 133° |
| 2026-05-05 14:39 | 37.69538 | 24.12223 | 18282 ft | 479 kts | 133° |
| 2026-05-05 14:40 | 37.67211 | 24.15198 | 17447 ft | 473 kts | 133° |
| 2026-05-05 14:40 | 37.64913 | 24.18132 | 16660 ft | 466 kts | 133° |
| 2026-05-05 14:40 | 37.62655 | 24.21015 | 15891 ft | 459 kts | 133° |
| 2026-05-05 14:40 | 37.60428 | 24.23857 | 15154 ft | 452 kts | 133° |
| 2026-05-05 14:41 | 37.58231 | 24.26657 | 14432 ft | 446 kts | 133° |
| 2026-05-05 14:41 | 37.56069 | 24.29412 | 13719 ft | 439 kts | 133° |
| 2026-05-05 14:41 | 37.54033 | 24.32232 | 12923 ft | 431 kts | 123° |
| 2026-05-05 14:41 | 37.52888 | 24.35557 | 12496 ft | 409 kts | 98° |
| 2026-05-05 14:42 | 37.52902 | 24.38981 | 12403 ft | 379 kts | 73° |
| 2026-05-05 14:42 | 37.53975 | 24.41862 | 12326 ft | 362 kts | 47° |
| 2026-05-05 14:42 | 37.55914 | 24.43818 | 12247 ft | 358 kts | 22° |
| 2026-05-05 14:42 | 37.58314 | 24.44483 | 12137 ft | 355 kts | 358° |
| 2026-05-05 14:43 | 37.60700 | 24.43810 | 11695 ft | 353 kts | 337° |
| 2026-05-05 14:43 | 37.62924 | 24.42533 | 11244 ft | 347 kts | 336° |
| 2026-05-05 14:43 | 37.65049 | 24.41249 | 11072 ft | 332 kts | 331° |
| 2026-05-05 14:43 | 37.67089 | 24.39677 | 10826 ft | 358 kts | 329° |
| 2026-05-05 14:44 | 37.69182 | 24.38028 | 10559 ft | 347 kts | 328° |
| 2026-05-05 14:44 | 37.71155 | 24.36455 | 10316 ft | 333 kts | 328° |
| 2026-05-05 14:44 | 37.73074 | 24.34919 | 10083 ft | 320 kts | 328° |
| 2026-05-05 14:44 | 37.74913 | 24.33448 | 9913 ft | 306 kts | 328° |
| 2026-05-05 14:45 | 37.76671 | 24.32047 | 9782 ft | 291 kts | 328° |
| 2026-05-05 14:45 | 37.78347 | 24.30713 | 9643 ft | 278 kts | 328° |
| 2026-05-05 14:45 | 37.79959 | 24.29427 | 9512 ft | 271 kts | 328° |
| 2026-05-05 14:45 | 37.81553 | 24.28158 | 9389 ft | 270 kts | 330° |
| 2026-05-05 14:46 | 37.83254 | 24.27169 | 9252 ft | 269 kts | 342° |
| 2026-05-05 14:46 | 37.85059 | 24.26706 | 9124 ft | 269 kts | 354° |
| 2026-05-05 14:46 | 37.86925 | 24.26519 | 9004 ft | 269 kts | 354° |
| 2026-05-05 14:46 | 37.88787 | 24.26326 | 8861 ft | 269 kts | 354° |
| 2026-05-05 14:47 | 37.90652 | 24.26125 | 8735 ft | 269 kts | 354° |
| 2026-05-05 14:47 | 37.92519 | 24.25920 | 8467 ft | 271 kts | 354° |
| 2026-05-05 14:47 | 37.94401 | 24.25712 | 8070 ft | 269 kts | 354° |
| 2026-05-05 14:47 | 37.96224 | 24.25514 | 7945 ft | 257 kts | 354° |
| 2026-05-05 14:48 | 37.97970 | 24.25326 | 7814 ft | 246 kts | 354° |
| 2026-05-05 14:48 | 37.99634 | 24.25068 | 7686 ft | 236 kts | 345° |
| 2026-05-05 14:48 | 38.01135 | 24.24363 | 7412 ft | 234 kts | 336° |
| 2026-05-05 14:48 | 38.02619 | 24.23536 | 7109 ft | 232 kts | 336° |
| 2026-05-05 14:49 | 38.04094 | 24.22717 | 6787 ft | 231 kts | 336° |
| 2026-05-05 14:49 | 38.05559 | 24.21896 | 6462 ft | 229 kts | 333° |
| 2026-05-05 14:49 | 38.06860 | 24.20752 | 6147 ft | 227 kts | 321° |
| 2026-05-05 14:49 | 38.08080 | 24.19460 | 5832 ft | 230 kts | 321° |
| 2026-05-05 14:50 | 38.09225 | 24.18044 | 5518 ft | 231 kts | 306° |
| 2026-05-05 14:50 | 38.09891 | 24.16191 | 5198 ft | 233 kts | 284° |
| 2026-05-05 14:50 | 38.10074 | 24.14167 | 4879 ft | 234 kts | 277° |
| 2026-05-05 14:50 | 38.10214 | 24.12114 | 4556 ft | 232 kts | 275° |
| 2026-05-05 14:51 | 38.09990 | 24.10075 | 4080 ft | 237 kts | 252° |
| 2026-05-05 14:51 | 38.09178 | 24.08288 | 3785 ft | 234 kts | 231° |
| 2026-05-05 14:51 | 38.07952 | 24.06954 | 3495 ft | 230 kts | 218° |
| 2026-05-05 14:51 | 38.06683 | 24.05747 | 3186 ft | 226 kts | 218° |
| 2026-05-05 14:52 | 38.05446 | 24.04566 | 2902 ft | 216 kts | 218° |
| 2026-05-05 14:52 | 38.04295 | 24.03467 | 2627 ft | 200 kts | 218° |
| 2026-05-05 14:52 | 38.03214 | 24.02433 | 2365 ft | 188 kts | 218° |
| 2026-05-05 14:52 | 38.02214 | 24.01479 | 2127 ft | 173 kts | 219° |
| 2026-05-05 14:53 | 38.01301 | 24.00607 | 1906 ft | 163 kts | 217° |
| 2026-05-05 14:53 | 38.00412 | 23.99758 | 1695 ft | 159 kts | 217° |
| 2026-05-05 14:53 | 37.99530 | 23.98917 | 1485 ft | 157 kts | 217° |
| 2026-05-05 14:53 | 37.98660 | 23.98088 | 1287 ft | 156 kts | 216° |
| 2026-05-05 14:54 | 37.97802 | 23.97267 | 1082 ft | 154 kts | 216° |
| 2026-05-05 14:54 | 37.96962 | 23.96459 | 888 ft | 151 kts | 215° |
| 2026-05-05 14:54 | 37.96143 | 23.95678 | 730 ft | 147 kts | 217° |
| 2026-05-05 14:54 | 37.95333 | 23.94908 | 483 ft | 145 kts | 217° |
| 2026-05-05 14:55 | 37.94525 | 23.94148 | 326 ft | 144 kts | 217° |
| 2026-05-05 14:55 | 37.93812 | 23.93471 | 294 ft | 108 kts | 217° |
| 2026-05-05 14:55 | 37.93348 | 23.93031 | 292 ft | 59 kts | 217° |
| 2026-05-05 14:55 | 37.93134 | 23.92861 | 289 ft | 28 kts | 200° |
| 2026-05-05 14:56 | 37.93001 | 23.92828 | 294 ft | 7 kts | 187° |
| 2026-05-05 14:56 | 37.92979 | 23.92825 | 296 ft | 2 kts | 184° |
| 2026-05-05 14:56 | 37.92967 | 23.92825 | 300 ft | 2 kts | 176° |
| 2026-05-05 14:56 | 37.92953 | 23.92830 | 298 ft | 2 kts | 159° |
| 2026-05-05 14:57 | 37.92940 | 23.92844 | 298 ft | 3 kts | 134° |
| 2026-05-05 14:57 | 37.92931 | 23.92871 | 301 ft | 4 kts | 102° |
| 2026-05-05 14:57 | 37.92944 | 23.92915 | 300 ft | 7 kts | 56° |
| 2026-05-05 14:57 | 37.92993 | 23.92971 | 300 ft | 12 kts | 38° |
| 2026-05-05 14:58 | 37.93062 | 23.93037 | 302 ft | 13 kts | 37° |
| 2026-05-05 14:58 | 37.93136 | 23.93108 | 302 ft | 14 kts | 37° |
| 2026-05-05 14:58 | 37.93215 | 23.93182 | 300 ft | 15 kts | 37° |
| 2026-05-05 14:58 | 37.93298 | 23.93262 | 301 ft | 15 kts | 37° |
| 2026-05-05 14:59 | 37.93385 | 23.93345 | 301 ft | 15 kts | 37° |
| 2026-05-05 14:59 | 37.93428 | 23.93425 | 299 ft | 11 kts | 94° |
| 2026-05-05 14:59 | 37.93389 | 23.93507 | 303 ft | 11 kts | 127° |
| 2026-05-05 14:59 | 37.93341 | 23.93588 | 303 ft | 12 kts | 127° |
| 2026-05-05 15:00 | 37.93289 | 23.93677 | 304 ft | 14 kts | 127° |
| 2026-05-05 15:00 | 37.93246 | 23.93749 | 301 ft | 17 kts | 127° |
| 2026-05-05 15:00 | 37.93152 | 23.93906 | 303 ft | 11 kts | 127° |
| 2026-05-05 15:00 | 37.93107 | 23.93982 | 303 ft | 11 kts | 127° |
| 2026-05-05 15:01 | 37.93112 | 23.94070 | 303 ft | 12 kts | 46° |
| 2026-05-05 15:01 | 37.93179 | 23.94133 | 304 ft | 13 kts | 36° |
| 2026-05-05 15:01 | 37.93251 | 23.94201 | 301 ft | 13 kts | 36° |
| 2026-05-05 15:01 | 37.93279 | 23.94296 | 303 ft | 13 kts | 114° |
| 2026-05-05 15:02 | 37.93223 | 23.94389 | 303 ft | 14 kts | 127° |
| 2026-05-05 15:02 | 37.93168 | 23.94483 | 301 ft | 11 kts | 126° |
| 2026-05-05 15:02 | 37.93186 | 23.94563 | 303 ft | 11 kts | 42° |
| 2026-05-05 15:02 | 37.93250 | 23.94625 | 303 ft | 12 kts | 37° |
| 2026-05-05 15:03 | 37.93320 | 23.94692 | 302 ft | 13 kts | 37° |
| 2026-05-05 15:03 | 37.93396 | 23.94764 | 301 ft | 14 kts | 36° |
| 2026-05-05 15:03 | 37.93476 | 23.94840 | 302 ft | 15 kts | 37° |
| 2026-05-05 15:03 | 37.93563 | 23.94923 | 303 ft | 16 kts | 37° |
| 2026-05-05 15:04 | 37.93654 | 23.95011 | 302 ft | 17 kts | 37° |
| 2026-05-05 15:04 | 37.93741 | 23.95094 | 301 ft | 14 kts | 37° |
| 2026-05-05 15:04 | 37.93807 | 23.95155 | 302 ft | 5 kts | 30° |
| 2026-05-05 15:04 | 37.93837 | 23.95141 | 300 ft | 5 kts | 323° |
| 2026-05-05 15:05 | 37.93870 | 23.95085 | 301 ft | 0 kts | 307° |